Chicago Rockford International Airport
KRFD : rendu visible

Aérodrome :











RETROUVEZ-NOUS SUR...

 
LOGIN :

S'inscrire | Disclaimer

   EN    FR    IT 

 









Légende :    VFR   VFR Marginal   IFR   IFR Intensif   IFR Très Intensif
Visi : 
Plafond : 
>= 8 km
>= 3000ft
5 à 8 km
1000 à 3000 ft
1500m à 5 km
500 à 1000 ft
800 à 1500m
200 à 500 ft
< 800m
< 200 ft
Symboles :   Orages  Brouillard  Fortes neiges  Fortes précipitations  Vent > 20 kt







- Altitude de l'aérodrome : 742 ft
- Code IATA : RFD


KRFD - Chicago Rockford International

DERNIER METAR :
  • 190154Z 14007KT 10SM BKN200 OVC250 22/19 A3007 RMK AO2 SLP180 T02220194

METARs EXPIRÉS :
  • 190054Z 14007KT 10SM BKN200 BKN250 23/19 A3005 RMK AO2 SLP171 T02330194
  • 182354Z 15009KT 10SM SCT200 BKN250 24/19 A3004 RMK AO2 SLP169 T02440194 10272 20244 58009
  • 182254Z 16009KT 10SM SCT200 SCT250 26/20 A3006 RMK AO2 SLP174 T02560200

TAF KRFD
Valide du 19 à 00h jusqu'au 20 à 00h UTC


182320Z 1900/1924 16009KT P6SM BKN250
PROB30 1912/1915 5SM -TSRA BKN050CB
FM191500 19007KT P6SM BKN200
Pas de NOTAMs connus pour ce terrain.



MET'MAP, la Météo Aéronautique d'un coup d'oeil ! - Copyright ORBIFLY Décembre 2007 - Disclaimer

ORBIFLY MET'MAP TEAM :

Programmation & Développement : Alexandra Zaïnal
Conception & Développement : Baudouin d'Aumeries
Co-Programmation & Développement : Marc-Olivier Méhu
Soutien technique & logistique : Manuel Goepfert

Contact : metmap@orbifly.com




SOURCES & CREDITS :

   NOAA       Earth
Advisory